Time;durP1;ratioP1;P1;durP2;ratioP2;P2;SDS_P1;SDS_P2;PMS_P1;PMS_P2;Temp;Humidity;BMP_temperature;BMP_pressure;BME280_temperature;BME280_humidity;BME280_pressure;Samples;Min_cycle;Max_cycle;Signal;HPM_P1;HPM_P2
2024/01/30 00:01:51;;;;;;;12.55;7.95;;;11.90;94.50;;;;;;5052923;28;20057;-67
2024/01/30 00:04:17;;;;;;;14.95;8.13;;;;;;;;;;5054261;28;20049;-67
2024/01/30 00:06:43;;;;;;;12.05;8.13;;;11.60;92.50;;;;;;5052404;28;20083;-66
2024/01/30 00:09:10;;;;;;;13.18;7.75;;;;;;;;;;5054107;28;20048;-67
2024/01/30 00:11:37;;;;;;;13.13;8.40;;;;;;;;;;5054146;28;20048;-67
2024/01/30 00:14:03;;;;;;;12.48;9.85;;;;;;;;;;5052067;28;20063;-67
2024/01/30 00:16:29;;;;;;;11.98;9.80;;;;;;;;;;5067811;28;20048;-68
2024/01/30 00:18:55;;;;;;;11.35;9.65;;;;;;;;;;5052628;28;20045;-68
2024/01/30 00:21:21;;;;;;;12.05;9.80;;;;;;;;;;5053955;28;20045;-69
2024/01/30 00:23:47;;;;;;;11.70;10.07;;;;;;;;;;5035821;28;20103;-68
2024/01/30 00:26:14;;;;;;;11.95;9.90;;;;;;;;;;5052262;28;20126;-69
2024/01/30 00:28:41;;;;;;;12.90;10.45;;;;;;;;;;5052237;28;20057;-68
2024/01/30 00:31:07;;;;;;;13.70;11.32;;;;;;;;;;5052133;28;20064;-70
2024/01/30 00:33:33;;;;;;;13.93;10.20;;;;;;;;;;5053050;28;20096;-69
2024/01/30 00:35:59;;;;;;;12.65;10.02;;;;;;;;;;5053692;28;20049;-68
2024/01/30 00:38:25;;;;;;;13.07;8.60;;;;;;;;;;5053245;28;20041;-68
2024/01/30 00:40:51;;;;;;;13.98;10.35;;;;;;;;;;5053199;28;20060;-66
2024/01/30 00:43:17;;;;;;;12.13;9.73;;;;;;;;;;5051946;28;20049;-69
2024/01/30 00:45:46;;;;;;;13.90;10.05;;;12.00;92.30;;;;;;5051940;28;20094;-67
2024/01/30 00:48:12;;;;;;;13.55;10.70;;;;;;;;;;5053277;28;20045;-68
2024/01/30 00:50:38;;;;;;;12.20;10.27;;;;;;;;;;5052642;28;20045;-68
2024/01/30 00:53:04;;;;;;;13.57;10.75;;;;;;;;;;5052074;28;20460;-69
2024/01/30 00:55:30;;;;;;;13.02;10.77;;;11.90;94.00;;;;;;5053288;28;20116;-67
2024/01/30 00:57:56;;;;;;;12.52;10.48;;;;;;;;;;5053010;28;20474;-68
2024/01/30 01:00:28;;;;;;;11.77;8.50;;;;;;;;;;5051707;28;20043;-69
2024/01/30 01:02:54;;;;;;;13.93;9.00;;;;;;;;;;5035965;28;20057;-68
2024/01/30 01:05:20;;;;;;;13.13;10.52;;;11.90;93.90;;;;;;5052838;28;20084;-67
2024/01/30 01:07:47;;;;;;;13.25;10.55;;;11.80;93.90;;;;;;5069312;28;20075;-69
2024/01/30 01:10:14;;;;;;;12.35;10.40;;;;;;;;;;5072878;28;20049;-69
2024/01/30 01:12:40;;;;;;;14.07;10.57;;;;;;;;;;5072604;28;20044;-67
2024/01/30 01:15:09;;;;;;;11.98;10.30;;;11.90;93.10;;;;;;5072860;28;20105;-67
2024/01/30 01:17:38;;;;;;;13.27;10.18;;;11.70;93.90;;;;;;5063813;28;20056;-67
2024/01/30 01:20:06;;;;;;;13.30;10.60;;;;;;;;;;5051267;28;20480;-67
2024/01/30 01:22:32;;;;;;;12.32;10.60;;;;;;;;;;5051156;28;20488;-69
2024/01/30 01:24:58;;;;;;;12.35;10.32;;;11.60;93.90;;;;;;5053033;28;20056;-67
2024/01/30 01:27:24;;;;;;;15.30;11.52;;;;;;;;;;5051111;28;20156;-68
2024/01/30 01:29:51;;;;;;;14.00;11.10;;;11.70;93.50;;;;;;5052774;28;20045;-67
2024/01/30 01:32:17;;;;;;;14.15;8.73;;;;;;;;;;5051284;28;20049;-69
2024/01/30 01:34:42;;;;;;;15.32;8.50;;;11.90;94.30;;;;;;5051354;28;20049;-69
2024/01/30 01:37:08;;;;;;;13.25;10.70;;;;;;;;;;5052503;28;20041;-67
2024/01/30 01:39:34;;;;;;;12.80;10.32;;;;;;;;;;5051993;28;20488;-68
2024/01/30 01:42:00;;;;;;;11.93;10.27;;;11.70;93.20;;;;;;5052670;28;20485;-67
2024/01/30 01:44:27;;;;;;;12.07;7.93;;;11.60;93.60;;;;;;5052122;28;20041;-70
2024/01/30 01:46:53;;;;;;;12.55;8.35;;;;;;;;;;5052416;28;20051;-68
2024/01/30 01:49:19;;;;;;;12.65;8.15;;;11.20;92.70;;;;;;5052081;28;20056;-67
2024/01/30 01:51:44;;;;;;;12.35;8.15;;;11.70;94.30;;;;;;5051171;28;20041;-68
2024/01/30 01:54:10;;;;;;;12.80;10.35;;;;;;;;;;5052010;28;20048;-69
2024/01/30 01:56:38;;;;;;;13.10;10.52;;;;;;;;;;5034390;28;20056;-68
2024/01/30 01:59:08;;;;;;;12.82;10.63;;;11.80;93.00;;;;;;5069550;28;20052;-67
2024/01/30 02:01:34;;;;;;;12.75;10.23;;;;;;;;;;5054052;28;20044;-69
2024/01/30 02:04:00;;;;;;;12.65;10.30;;;;;;;;;;5072078;28;20113;-68
2024/01/30 02:06:27;;;;;;;12.10;8.20;;;;;;;;;;5070932;28;20080;-68
2024/01/30 02:08:53;;;;;;;11.85;8.20;;;;;;;;;;5071764;28;20049;-68
2024/01/30 02:11:19;;;;;;;13.82;10.07;;;11.70;93.90;;;;;;5071800;28;20128;-67
2024/01/30 02:13:45;;;;;;;11.55;7.53;;;11.90;94.30;;;;;;5070377;28;20090;-67
2024/01/30 02:16:11;;;;;;;12.27;8.07;;;;;;;;;;5071666;28;20493;-68
2024/01/30 02:18:41;;;;;;;12.65;9.82;;;11.60;93.30;;;;;;5054844;28;20308;-70
2024/01/30 02:21:08;;;;;;;11.93;9.75;;;;;;;;;;5052027;28;20447;-69
2024/01/30 02:23:34;;;;;;;12.18;9.63;;;;;;;;;;5050252;28;20056;-67
2024/01/30 02:26:00;;;;;;;11.25;9.15;;;;;;;;;;5050296;28;20048;-66
2024/01/30 02:28:27;;;;;;;13.57;9.65;;;;;;;;;;5051913;28;20063;-68
2024/01/30 02:30:53;;;;;;;11.45;7.63;;;;;;;;;;5051147;28;20048;-68
2024/01/30 02:33:19;;;;;;;14.48;8.45;;;;;;;;;;5051900;28;20324;-70
2024/01/30 02:35:45;;;;;;;12.95;7.65;;;11.60;93.10;;;;;;5051797;28;20041;-67
2024/01/30 02:38:10;;;;;;;12.10;8.02;;;11.70;92.70;;;;;;5051815;28;20060;-67
2024/01/30 02:40:36;;;;;;;12.13;9.20;;;11.80;93.90;;;;;;5055607;28;20505;-68
2024/01/30 02:43:02;;;;;;;12.02;9.38;;;;;;;;;;5054206;28;20516;-68
2024/01/30 02:45:28;;;;;;;13.68;9.85;;;;;;;;;;5055858;28;20053;-68
2024/01/30 02:47:54;;;;;;;13.30;9.45;;;;;;;;;;5054735;28;20045;-67
2024/01/30 02:50:20;;;;;;;11.25;9.23;;;11.80;93.80;;;;;;5055382;28;20051;-67
2024/01/30 02:52:46;;;;;;;12.60;9.57;;;;;;;;;;5055342;28;20045;-68
2024/01/30 02:55:12;;;;;;;12.73;8.43;;;;;;;;;;5055264;28;20048;-67
2024/01/30 02:57:39;;;;;;;12.82;9.30;;;;;;;;;;5055579;28;20055;-70
2024/01/30 03:00:06;;;;;;;12.18;9.80;;;11.70;94.00;;;;;;5053959;28;20552;-68
2024/01/30 03:02:35;;;;;;;11.43;9.77;;;11.50;92.80;;;;;;5053929;28;20095;-70
2024/01/30 03:05:01;;;;;;;11.80;8.75;;;;;;;;;;5057080;28;20406;-67
2024/01/30 03:07:27;;;;;;;12.27;9.63;;;;;;;;;;5075262;28;20040;-67
2024/01/30 03:09:55;;;;;;;12.05;9.43;;;11.60;92.70;;;;;;5055270;28;20107;-70
2024/01/30 03:12:21;;;;;;;14.45;10.05;;;11.50;93.60;;;;;;5055298;28;20044;-68
2024/01/30 03:14:47;;;;;;;11.50;7.43;;;11.60;94.20;;;;;;5053865;28;20442;-68
2024/01/30 03:17:13;;;;;;;15.05;8.13;;;;;;;;;;5049322;28;20080;-69
2024/01/30 03:19:39;;;;;;;12.13;9.60;;;;;;;;;;5033951;28;20457;-67
2024/01/30 03:22:05;;;;;;;13.27;9.52;;;11.70;93.90;;;;;;5039588;28;20067;-70
2024/01/30 03:24:31;;;;;;;12.20;9.45;;;;;;;;;;5074810;28;20497;-68
2024/01/30 03:26:57;;;;;;;11.65;7.68;;;;;;;;;;5073360;28;20074;-67
2024/01/30 03:29:23;;;;;;;14.25;9.27;;;;;;;;;;5073683;28;20149;-69
2024/01/30 03:31:49;;;;;;;13.88;9.55;;;;;;;;;;5073254;28;20174;-69
2024/01/30 03:34:15;;;;;;;12.68;9.55;;;;;;;;;;5074616;28;20055;-68
2024/01/30 03:36:41;;;;;;;11.90;8.88;;;;;;;;;;5074812;28;20483;-67
2024/01/30 03:39:07;;;;;;;11.98;9.10;;;11.80;94.00;;;;;;5073601;28;20055;-68
2024/01/30 03:41:33;;;;;;;11.60;8.80;;;;;;;;;;5074548;28;20057;-67
2024/01/30 03:43:59;;;;;;;11.00;9.07;;;11.60;93.90;;;;;;5074624;28;20465;-67
2024/01/30 03:46:25;;;;;;;11.45;7.43;;;11.80;94.30;;;;;;5074432;28;20131;-67
2024/01/30 03:48:51;;;;;;;12.82;9.80;;;;;;;;;;5074491;28;20047;-69
2024/01/30 03:51:17;;;;;;;11.60;7.07;;;;;;;;;;5074533;28;20151;-68
2024/01/30 03:53:43;;;;;;;12.13;9.38;;;;;;;;;;5067468;28;20057;-66
2024/01/30 03:56:09;;;;;;;11.48;9.20;;;11.70;92.80;;;;;;5054704;28;20045;-68
2024/01/30 03:58:35;;;;;;;12.05;9.20;;;11.80;93.90;;;;;;5054098;28;20041;-68
2024/01/30 04:01:01;;;;;;;12.52;9.38;;;;;;;;;;5054416;28;20047;-70
2024/01/30 04:03:27;;;;;;;14.10;9.68;;;;;;;;;;5053894;28;20560;-67
2024/01/30 04:05:53;;;;;;;11.57;7.75;;;;;;;;;;5052672;28;20475;-69
2024/01/30 04:08:19;;;;;;;11.85;7.35;;;;;;;;;;5054143;28;20041;-68
2024/01/30 04:10:46;;;;;;;14.10;9.65;;;11.60;92.70;;;;;;5053893;28;20084;-67
2024/01/30 04:13:12;;;;;;;12.60;9.35;;;11.80;93.90;;;;;;5056775;28;20486;-66
2024/01/30 04:15:38;;;;;;;11.98;9.18;;;;;;;;;;5074025;28;20072;-69
2024/01/30 04:18:04;;;;;;;11.70;8.73;;;;;;;;;;5060917;28;20049;-69
2024/01/30 04:20:30;;;;;;;11.95;9.65;;;;;;;;;;5053985;28;20091;-69
2024/01/30 04:22:56;;;;;;;10.45;9.20;;;;;;;;;;5053843;28;20406;-67
2024/01/30 04:25:22;;;;;;;11.82;9.73;;;;;;;;;;5053922;28;20072;-70
2024/01/30 04:27:48;;;;;;;11.98;9.60;;;;;;;;;;5053833;28;20049;-68
2024/01/30 04:30:14;;;;;;;11.38;7.25;;;;;;;;;;5057507;28;20054;-70
2024/01/30 04:32:40;;;;;;;12.05;9.38;;;11.80;94.00;;;;;;5072211;28;20041;-68
2024/01/30 04:35:06;;;;;;;12.35;8.98;;;11.60;93.90;;;;;;5072201;28;20041;-67
2024/01/30 04:37:32;;;;;;;13.15;9.27;;;;;;;;;;5073456;28;20052;-69
2024/01/30 04:39:58;;;;;;;10.77;9.02;;;;;;;;;;5072070;28;20185;-66
2024/01/30 04:42:24;;;;;;;11.20;8.82;;;;;;;;;;5073267;28;20052;-68
2024/01/30 04:44:51;;;;;;;11.25;8.88;;;;;;;;;;5073209;28;20503;-70
2024/01/30 04:47:16;;;;;;;13.02;9.68;;;11.90;94.00;;;;;;5072330;28;20040;-70
2024/01/30 04:49:42;;;;;;;11.57;9.52;;;11.70;94.00;;;;;;5073176;28;20055;-70
2024/01/30 04:52:08;;;;;;;11.20;8.85;;;;;;;;;;5061993;28;20182;-71
2024/01/30 04:54:35;;;;;;;11.93;9.18;;;;;;;;;;5035367;28;20128;-70
2024/01/30 04:57:01;;;;;;;11.27;9.35;;;11.80;94.10;;;;;;5051860;28;20052;-70
2024/01/30 04:59:27;;;;;;;11.93;9.20;;;11.60;94.10;;;;;;5053245;28;20040;-67
2024/01/30 05:01:53;;;;;;;10.63;8.60;;;;;;;;;;5052547;28;20063;-66
2024/01/30 05:04:19;;;;;;;11.38;7.30;;;;;;;;;;5053361;28;20051;-68
2024/01/30 05:06:45;;;;;;;12.60;7.47;;;;;;;;;;5053115;28;20128;-68
2024/01/30 05:09:12;;;;;;;12.02;9.30;;;;;;;;;;5052943;28;20401;-68
2024/01/30 05:11:40;;;;;;;13.18;8.95;;;11.90;92.80;;;;;;5051721;28;20437;-69
2024/01/30 05:14:06;;;;;;;12.88;9.65;;;11.90;93.70;;;;;;5034873;28;20040;-70
2024/01/30 05:16:32;;;;;;;11.38;9.32;;;;;;;;;;5018329;28;20410;-68
2024/01/30 05:18:59;;;;;;;12.63;9.52;;;11.70;94.10;;;;;;5032786;28;20041;-69
2024/01/30 05:21:25;;;;;;;12.65;9.68;;;;;;;;;;5042957;28;20052;-70
2024/01/30 05:23:51;;;;;;;11.32;7.65;;;;;;;;;;5072716;28;20052;-69
2024/01/30 05:26:17;;;;;;;12.55;9.27;;;11.70;94.10;;;;;;5072727;28;20417;-69
2024/01/30 05:28:44;;;;;;;12.23;9.52;;;;;;;;;;5071386;28;20036;-69
2024/01/30 05:31:10;;;;;;;11.80;9.50;;;;;;;;;;5072377;28;20064;-71
2024/01/30 05:33:36;;;;;;;12.95;9.45;;;;;;;;;;5072335;28;20079;-70
2024/01/30 05:36:03;;;;;;;11.73;9.38;;;11.80;93.30;;;;;;5070913;28;20152;-69
2024/01/30 05:38:29;;;;;;;12.82;9.55;;;11.80;92.80;;;;;;5070262;28;20084;-69
2024/01/30 05:40:55;;;;;;;10.85;7.75;;;11.80;94.50;;;;;;5070692;28;20091;-69
2024/01/30 05:43:21;;;;;;;11.82;7.47;;;;;;;;;;5071163;28;20080;-69
2024/01/30 05:45:47;;;;;;;12.00;7.30;;;11.70;94.50;;;;;;5072141;28;20044;-68
2024/01/30 05:48:13;;;;;;;12.38;9.73;;;;;;;;;;5072408;28;20131;-68
2024/01/30 05:50:38;;;;;;;11.73;9.48;;;11.80;94.10;;;;;;5040483;28;20478;-67
2024/01/30 05:53:04;;;;;;;12.65;9.88;;;;;;;;;;5052271;28;20033;-67
2024/01/30 05:55:30;;;;;;;11.57;9.18;;;;;;;;;;5051549;28;20037;-69
2024/01/30 05:57:57;;;;;;;10.55;6.97;;;;;;;;;;5050680;28;20052;-67
2024/01/30 06:00:23;;;;;;;12.13;7.68;;;;;;;;;;5051899;28;20040;-70
2024/01/30 06:02:49;;;;;;;11.43;7.47;;;;;;;;;;5052144;28;20348;-67
2024/01/30 06:05:14;;;;;;;11.32;9.65;;;11.90;94.30;;;;;;5050693;28;20044;-67
2024/01/30 06:07:40;;;;;;;13.07;10.15;;;11.90;94.40;;;;;;5051917;28;20044;-69
2024/01/30 06:10:06;;;;;;;12.43;9.63;;;11.80;94.40;;;;;;5050646;28;20132;-66
2024/01/30 06:12:33;;;;;;;12.60;9.80;;;;;;;;;;5047970;28;20493;-69
2024/01/30 06:14:59;;;;;;;11.63;10.02;;;11.80;93.90;;;;;;5072585;28;20083;-67
2024/01/30 06:17:25;;;;;;;12.93;9.95;;;;;;;;;;5052909;28;20084;-66
2024/01/30 06:19:51;;;;;;;11.70;9.68;;;11.80;94.20;;;;;;5052533;28;20409;-68
2024/01/30 06:22:17;;;;;;;11.48;10.07;;;;;;;;;;5050977;28;20051;-67
2024/01/30 06:24:44;;;;;;;12.25;9.52;;;;;;;;;;5052128;28;20053;-68
2024/01/30 06:27:11;;;;;;;12.02;10.05;;;;;;;;;;5050710;28;20049;-67
2024/01/30 06:29:37;;;;;;;12.43;10.25;;;;;;;;;;5051169;28;20071;-66
2024/01/30 06:32:03;;;;;;;13.25;9.65;;;;;;;;;;5051657;28;20048;-68
2024/01/30 06:34:29;;;;;;;14.27;9.48;;;11.80;94.40;;;;;;5051559;28;20084;-69
2024/01/30 06:36:55;;;;;;;12.65;10.32;;;;;;;;;;5050576;28;20048;-68
2024/01/30 06:39:21;;;;;;;13.45;9.93;;;;;;;;;;5051577;28;20451;-68
2024/01/30 06:41:47;;;;;;;12.40;10.40;;;;;;;;;;5050450;28;20375;-67
2024/01/30 06:44:13;;;;;;;11.55;10.18;;;;;;;;;;5051466;28;20403;-69
2024/01/30 06:46:39;;;;;;;12.90;10.20;;;;;;;;;;5051890;28;20106;-69
2024/01/30 06:49:06;;;;;;;13.27;10.75;;;;;;;;;;5051677;28;20395;-69
2024/01/30 06:51:31;;;;;;;15.00;10.55;;;11.70;94.40;;;;;;5051416;28;20060;-67
2024/01/30 06:53:57;;;;;;;12.38;10.63;;;;;;;;;;5051604;28;20037;-67
2024/01/30 06:56:24;;;;;;;14.35;10.60;;;;;;;;;;5051344;28;20068;-69
2024/01/30 06:58:50;;;;;;;12.82;9.80;;;;;;;;;;5051670;28;20045;-67
2024/01/30 07:01:16;;;;;;;12.70;10.32;;;;;;;;;;5050225;28;20379;-68
2024/01/30 07:03:43;;;;;;;12.43;9.90;;;;;;;;;;5050810;28;20071;-69
2024/01/30 07:06:10;;;;;;;12.15;9.90;;;;;;;;;;5049980;28;20057;-67
2024/01/30 07:08:37;;;;;;;12.82;9.88;;;11.70;94.50;;;;;;5050154;28;20140;-67
2024/01/30 07:11:03;;;;;;;12.23;10.25;;;;;;;;;;5033792;28;20049;-67
2024/01/30 07:13:29;;;;;;;13.98;10.43;;;;;;;;;;5051341;28;20139;-71
2024/01/30 07:15:55;;;;;;;12.80;10.88;;;;;;;;;;5044614;28;20127;-68
2024/01/30 07:18:21;;;;;;;13.20;10.38;;;12.00;94.60;;;;;;5031183;28;20045;-69
2024/01/30 07:20:47;;;;;;;13.90;10.38;;;11.80;94.60;;;;;;5040833;28;20067;-69
2024/01/30 07:23:15;;;;;;;12.02;10.00;;;12.00;93.10;;;;;;5051263;28;20057;-69
2024/01/30 07:25:42;;;;;;;12.80;8.45;;;;;;;;;;5054876;28;20055;-69
2024/01/30 07:28:12;;;;;;;13.98;10.15;;;11.70;94.50;;;;;;5055009;28;20044;-68
2024/01/30 07:30:38;;;;;;;11.98;9.68;;;12.00;94.60;;;;;;5054931;28;20044;-68
2024/01/30 07:33:05;;;;;;;12.90;9.75;;;;;;;;;;5054722;28;20048;-68
2024/01/30 07:35:31;;;;;;;13.32;10.48;;;;;;;;;;5053342;28;20048;-69
2024/01/30 07:37:57;;;;;;;13.32;10.63;;;;;;;;;;5053981;28;20510;-67
2024/01/30 07:40:23;;;;;;;14.18;10.75;;;11.70;94.60;;;;;;5053113;28;20183;-68
2024/01/30 07:42:50;;;;;;;12.15;10.20;;;;;;;;;;5054619;28;20056;-67
2024/01/30 07:45:16;;;;;;;11.23;9.77;;;11.90;94.20;;;;;;5054325;28;20134;-69
2024/01/30 07:47:42;;;;;;;14.27;10.07;;;;;;;;;;5054494;28;20418;-68
2024/01/30 07:50:09;;;;;;;16.85;10.93;;;;;;;;;;5054224;28;20044;-69
2024/01/30 07:52:35;;;;;;;15.63;10.48;;;;;;;;;;5054291;28;20055;-68
2024/01/30 07:55:01;;;;;;;12.73;10.38;;;11.90;94.70;;;;;;5063764;28;20044;-68
2024/01/30 07:57:27;;;;;;;12.68;10.23;;;;;;;;;;5074513;28;20671;-69
2024/01/30 07:59:53;;;;;;;12.88;10.20;;;;;;;;;;5072800;28;20490;-68
2024/01/30 08:02:20;;;;;;;13.05;10.27;;;11.90;93.90;;;;;;5074009;28;20044;-67
2024/01/30 08:04:48;;;;;;;14.73;11.05;;;;;;;;;;5074357;28;20053;-69
2024/01/30 08:07:14;;;;;;;12.57;9.85;;;11.80;94.70;;;;;;5074067;28;20370;-68
2024/01/30 08:09:40;;;;;;;13.35;10.70;;;;;;;;;;5074202;28;20074;-68
2024/01/30 08:12:07;;;;;;;13.77;10.38;;;;;;;;;;5073392;28;20052;-69
2024/01/30 08:14:33;;;;;;;12.40;9.52;;;;;;;;;;5074191;28;20121;-67
2024/01/30 08:16:59;;;;;;;12.07;9.75;;;;;;;;;;5041761;28;20046;-69
2024/01/30 08:19:25;;;;;;;13.23;10.40;;;;;;;;;;5033789;28;20045;-68
2024/01/30 08:21:50;;;;;;;13.55;9.82;;;11.80;94.80;;;;;;5033888;28;20118;-69
2024/01/30 08:24:17;;;;;;;13.30;10.07;;;;;;;;;;5032445;28;20053;-69
2024/01/30 08:26:43;;;;;;;14.05;9.93;;;;;;;;;;5034013;28;20060;-68
2024/01/30 08:29:09;;;;;;;14.20;10.57;;;;;;;;;;5046635;28;20045;-67
2024/01/30 08:31:35;;;;;;;12.75;9.80;;;11.90;93.70;;;;;;5053782;28;20056;-67
2024/01/30 08:34:00;;;;;;;12.60;10.23;;;12.00;94.90;;;;;;5053827;28;20433;-67
2024/01/30 08:36:26;;;;;;;14.00;10.52;;;12.00;94.90;;;;;;5052458;28;20044;-67
2024/01/30 08:38:52;;;;;;;12.93;10.48;;;12.00;94.90;;;;;;5053532;28;20141;-68
2024/01/30 08:41:18;;;;;;;12.02;9.52;;;11.90;94.80;;;;;;5053183;28;20064;-68
2024/01/30 08:43:44;;;;;;;11.35;9.57;;;12.00;94.90;;;;;;5035221;28;20120;-69
2024/01/30 08:46:10;;;;;;;11.50;9.10;;;;;;;;;;5063595;28;20074;-67
2024/01/30 08:48:37;;;;;;;13.25;10.25;;;;;;;;;;5073515;28;20387;-67
2024/01/30 08:51:03;;;;;;;11.60;9.50;;;;;;;;;;5073118;28;20493;-69
2024/01/30 08:53:29;;;;;;;12.85;9.35;;;;;;;;;;5071852;28;20052;-70
2024/01/30 08:55:55;;;;;;;13.30;10.70;;;;;;;;;;5073063;28;20048;-69
2024/01/30 08:58:21;;;;;;;12.48;10.27;;;;;;;;;;5071827;28;20048;-69
2024/01/30 09:00:47;;;;;;;12.00;9.43;;;;;;;;;;5073006;28;20123;-68
2024/01/30 09:03:13;;;;;;;12.68;9.30;;;;;;;;;;5070718;28;20053;-67
2024/01/30 09:05:39;;;;;;;10.63;9.10;;;;;;;;;;5071895;28;20048;-67
2024/01/30 09:08:05;;;;;;;12.70;10.02;;;;;;;;;;5071365;28;20101;-70
2024/01/30 09:10:31;;;;;;;11.15;8.57;;;;;;;;;;5071497;28;20044;-68
2024/01/30 09:12:58;;;;;;;12.07;9.05;;;;;;;;;;5072685;28;20071;-68
2024/01/30 09:15:24;;;;;;;12.18;9.65;;;;;;;;;;5033292;28;20058;-69
2024/01/30 09:17:50;;;;;;;12.43;9.52;;;;;;;;;;5031480;28;20053;-68
2024/01/30 09:20:16;;;;;;;12.23;8.90;;;;;;;;;;5058766;28;20131;-70
2024/01/30 09:22:42;;;;;;;14.45;9.55;;;;;;;;;;5072494;28;20524;-67
2024/01/30 09:25:09;;;;;;;11.82;9.27;;;;;;;;;;5071178;28;20087;-68
2024/01/30 09:27:35;;;;;;;13.55;10.48;;;;;;;;;;5072696;28;20499;-66
2024/01/30 09:30:02;;;;;;;12.20;8.98;;;;;;;;;;5072684;28;20090;-68
2024/01/30 09:32:28;;;;;;;11.65;8.77;;;;;;;;;;5071038;28;20127;-70
2024/01/30 09:34:54;;;;;;;11.43;8.77;;;;;;;;;;5072562;28;20051;-69
2024/01/30 09:37:20;;;;;;;11.68;9.07;;;;;;;;;;5071434;28;20052;-67
2024/01/30 09:39:46;;;;;;;11.70;9.02;;;;;;;;;;5066950;28;20048;-67
2024/01/30 09:42:18;;;;;;;11.15;8.98;;;12.10;93.90;;;;;;5052479;28;20413;-68
2024/01/30 09:44:45;;;;;;;13.00;8.93;;;;;;;;;;5050876;28;20056;-69
2024/01/30 09:47:11;;;;;;;12.55;9.45;;;;;;;;;;5050700;28;20134;-68
2024/01/30 09:49:36;;;;;;;11.18;8.60;;;12.10;94.20;;;;;;5050837;28;20080;-68
2024/01/30 09:52:05;;;;;;;13.95;9.30;;;12.10;93.30;;;;;;5051105;28;20072;-68
2024/01/30 09:54:32;;;;;;;13.13;9.35;;;;;;;;;;5051680;28;20041;-68
2024/01/30 09:56:58;;;;;;;11.35;8.57;;;;;;;;;;5050975;28;20052;-68
2024/01/30 09:59:24;;;;;;;13.25;9.32;;;12.20;93.80;;;;;;5052044;28;20418;-69
2024/01/30 10:01:54;;;;;;;12.02;9.00;;;;;;;;;;5050673;28;20029;-69
2024/01/30 10:04:19;;;;;;;10.20;8.63;;;12.10;95.10;;;;;;5050863;28;20053;-69
2024/01/30 10:06:46;;;;;;;11.90;8.25;;;;;;;;;;5051882;28;20405;-68
2024/01/30 10:09:13;;;;;;;10.57;8.43;;;;;;;;;;5051759;28;20063;-68
2024/01/30 10:11:39;;;;;;;11.73;8.65;;;;;;;;;;5067502;28;20063;-67
2024/01/30 10:14:05;;;;;;;11.93;8.82;;;;;;;;;;5071987;28;20044;-68
2024/01/30 10:16:31;;;;;;;12.70;9.40;;;;;;;;;;5060206;28;20051;-69
2024/01/30 10:18:57;;;;;;;11.88;9.05;;;12.40;94.40;;;;;;5051952;28;20128;-69
2024/01/30 10:21:23;;;;;;;13.05;9.10;;;;;;;;;;5051986;28;20147;-69
2024/01/30 10:23:49;;;;;;;11.40;8.70;;;12.30;93.80;;;;;;5051894;28;20045;-70
2024/01/30 10:26:17;;;;;;;11.40;8.55;;;12.50;94.20;;;;;;5050390;28;20087;-70
2024/01/30 10:28:43;;;;;;;11.73;8.43;;;;;;;;;;5052106;28;20494;-70
2024/01/30 10:31:09;;;;;;;12.45;8.90;;;12.40;95.30;;;;;;5051655;28;20052;-70
2024/01/30 10:33:35;;;;;;;11.68;8.75;;;;;;;;;;5051503;28;20056;-70
2024/01/30 10:36:02;;;;;;;11.35;8.50;;;12.20;94.00;;;;;;5051596;28;20080;-70
2024/01/30 10:38:31;;;;;;;13.05;9.10;;;12.50;94.00;;;;;;5051662;28;20119;-70
2024/01/30 10:41:01;;;;;;;11.45;8.02;;;12.30;95.40;;;;;;5033396;28;20065;-70
2024/01/30 10:43:30;;;;;;;11.38;7.70;;;;;;;;;;5050260;28;20450;-70
2024/01/30 10:45:56;;;;;;;11.25;8.60;;;;;;;;;;5051936;28;20055;-69
2024/01/30 10:48:22;;;;;;;12.90;8.88;;;;;;;;;;5050180;28;20052;-67
2024/01/30 10:50:49;;;;;;;10.80;8.63;;;12.20;95.20;;;;;;5050425;28;20498;-69
2024/01/30 10:53:14;;;;;;;11.63;8.27;;;12.40;95.40;;;;;;5050170;28;20085;-67
2024/01/30 10:55:40;;;;;;;11.90;8.60;;;12.40;95.40;;;;;;5033548;28;20053;-67
2024/01/30 10:58:06;;;;;;;12.90;8.65;;;;;;;;;;5033742;28;20088;-66
2024/01/30 11:00:34;;;;;;;10.00;7.72;;;;;;;;;;5054972;28;20057;-67
2024/01/30 11:03:00;;;;;;;10.90;8.48;;;12.50;95.50;;;;;;5056016;28;20048;-68
2024/01/30 11:05:29;;;;;;;10.68;7.90;;;12.30;95.50;;;;;;5037458;28;20445;-67
2024/01/30 11:07:55;;;;;;;12.27;8.73;;;12.40;95.50;;;;;;5054121;28;20043;-68
2024/01/30 11:10:21;;;;;;;11.07;8.13;;;;;;;;;;5054025;28;20049;-66
2024/01/30 11:12:47;;;;;;;11.30;7.70;;;;;;;;;;5055343;28;20045;-70
2024/01/30 11:15:14;;;;;;;10.93;8.60;;;12.50;94.60;;;;;;5053856;28;20053;-69
2024/01/30 11:17:52;;;;;;;11.07;7.60;;;12.60;94.60;;;;;;5053723;28;20076;-70
2024/01/30 11:20:22;;;;;;;11.82;8.52;;;;;;;;;;5035108;28;20052;-69
2024/01/30 11:22:50;;;;;;;10.63;8.35;;;12.40;95.50;;;;;;5035114;28;20052;-69
2024/01/30 11:25:17;;;;;;;12.57;7.68;;;12.50;94.50;;;;;;5035291;28;20053;-69
2024/01/30 11:27:43;;;;;;;11.55;7.75;;;12.60;94.10;;;;;;5035582;28;20391;-67
2024/01/30 11:30:09;;;;;;;12.57;8.48;;;;;;;;;;5035331;28;20057;-70
2024/01/30 11:32:35;;;;;;;10.82;7.97;;;12.60;94.30;;;;;;5035311;28;20041;-67
2024/01/30 11:35:06;;;;;;;11.25;8.25;;;12.60;94.50;;;;;;5037359;28;20600;-69
2024/01/30 11:37:32;;;;;;;11.93;8.23;;;12.40;95.70;;;;;;5053919;28;20060;-69
2024/01/30 11:39:58;;;;;;;13.68;8.80;;;;;;;;;;5036896;28;20589;-68
2024/01/30 11:42:24;;;;;;;11.25;8.20;;;;;;;;;;5054580;28;20045;-68
2024/01/30 11:44:51;;;;;;;11.63;8.23;;;;;;;;;;5053610;28;20053;-69
2024/01/30 11:47:17;;;;;;;11.75;8.57;;;12.50;95.80;;;;;;5054736;28;20114;-68
2024/01/30 11:49:43;;;;;;;10.90;7.43;;;;;;;;;;5054726;28;20045;-69
2024/01/30 11:52:10;;;;;;;11.05;8.05;;;;;;;;;;5055156;28;20101;-69
2024/01/30 11:54:36;;;;;;;10.32;7.63;;;;;;;;;;5053003;28;20053;-69
2024/01/30 11:57:03;;;;;;;10.02;7.43;;;;;;;;;;5053292;28;20041;-68
2024/01/30 11:59:29;;;;;;;10.43;7.40;;;;;;;;;;5054254;28;20067;-68
2024/01/30 12:01:55;;;;;;;10.60;7.57;;;;;;;;;;5054048;28;20052;-67
2024/01/30 12:04:22;;;;;;;10.95;7.55;;;;;;;;;;5054349;28;20095;-69
2024/01/30 12:06:51;;;;;;;11.13;7.60;;;12.50;94.80;;;;;;5052845;28;20052;-67
2024/01/30 12:09:17;;;;;;;11.48;7.65;;;12.40;95.70;;;;;;5054780;28;20048;-69
2024/01/30 12:11:46;;;;;;;8.77;7.25;;;12.60;94.20;;;;;;5036048;28;20498;-67
2024/01/30 12:14:12;;;;;;;12.10;7.80;;;12.60;94.90;;;;;;5052572;28;20467;-69
2024/01/30 12:16:38;;;;;;;11.00;8.05;;;12.40;95.80;;;;;;5044765;28;20037;-68
2024/01/30 12:19:04;;;;;;;10.68;7.55;;;;;;;;;;5034186;28;20158;-68
2024/01/30 12:21:30;;;;;;;10.60;7.85;;;;;;;;;;5034132;28;20056;-67
2024/01/30 12:24:00;;;;;;;8.80;6.90;;;;;;;;;;5032459;28;20091;-68
2024/01/30 12:26:26;;;;;;;13.10;7.68;;;;;;;;;;5040612;28;20041;-67
2024/01/30 12:28:55;;;;;;;10.70;7.47;;;;;;;;;;5052611;28;20144;-68
2024/01/30 12:31:31;;;;;;;13.65;7.72;;;;;;;;;;5053527;28;20052;-70
2024/01/30 12:33:59;;;;;;;9.68;7.32;;;;;;;;;;5052335;28;20091;-67
2024/01/30 12:36:25;;;;;;;11.68;7.93;;;;;;;;;;5053703;28;20071;-70
2024/01/30 12:38:51;;;;;;;10.60;7.28;;;;;;;;;;5053687;28;20041;-70
2024/01/30 12:41:18;;;;;;;10.23;6.65;;;12.60;95.90;;;;;;5035425;28;20053;-67
2024/01/30 12:43:44;;;;;;;12.05;7.43;;;12.50;95.90;;;;;;5054132;28;20049;-67
2024/01/30 12:46:10;;;;;;;11.15;7.68;;;;;;;;;;5035597;28;20130;-67
2024/01/30 12:48:36;;;;;;;11.88;7.50;;;;;;;;;;5051926;28;20033;-67
2024/01/30 12:51:02;;;;;;;10.35;6.68;;;;;;;;;;5051965;28;20056;-67
2024/01/30 12:53:28;;;;;;;11.20;6.95;;;12.60;96.00;;;;;;5052172;28;20045;-68
2024/01/30 12:55:54;;;;;;;9.63;5.63;;;12.70;96.00;;;;;;5051789;28;20051;-69
2024/01/30 12:58:20;;;;;;;10.30;5.90;;;;;;;;;;5053404;28;20033;-68
2024/01/30 13:00:47;;;;;;;9.05;5.85;;;12.80;96.00;;;;;;5061461;28;20097;-67
2024/01/30 13:03:12;;;;;;;11.68;5.90;;;12.70;96.00;;;;;;5073171;28;20053;-67
2024/01/30 13:05:38;;;;;;;9.63;5.38;;;12.70;96.00;;;;;;5072880;28;20393;-69
2024/01/30 13:08:04;;;;;;;9.82;5.88;;;12.80;96.10;;;;;;5072695;28;20037;-70
2024/01/30 13:10:30;;;;;;;8.43;5.50;;;12.70;96.00;;;;;;5072807;28;20080;-66
2024/01/30 13:12:56;;;;;;;10.27;5.15;;;;;;;;;;5038425;28;20091;-68
2024/01/30 13:15:22;;;;;;;10.10;5.20;;;;;;;;;;5051451;28;20053;-68
2024/01/30 13:17:49;;;;;;;10.25;5.38;;;12.90;95.70;;;;;;5052294;28;20398;-68
2024/01/30 13:20:19;;;;;;;7.47;4.60;;;12.90;96.20;;;;;;5051411;28;20087;-68
2024/01/30 13:22:45;;;;;;;8.27;4.70;;;12.80;96.20;;;;;;5050879;28;20048;-70
2024/01/30 13:25:10;;;;;;;7.65;4.47;;;12.70;96.10;;;;;;5052696;28;20041;-68
2024/01/30 13:27:37;;;;;;;10.00;4.60;;;12.80;96.20;;;;;;5051566;28;20045;-68
2024/01/30 13:30:03;;;;;;;7.60;3.80;;;;;;;;;;5052563;28;20499;-67
2024/01/30 13:32:29;;;;;;;7.72;3.80;;;12.70;95.40;;;;;;5052505;28;20041;-68
2024/01/30 13:34:55;;;;;;;7.10;3.55;;;;;;;;;;5052988;28;20049;-67
2024/01/30 13:37:22;;;;;;;7.18;3.60;;;13.00;95.40;;;;;;5052610;28;20041;-68